Time;durP1;ratioP1;P1;durP2;ratioP2;P2;SDS_P1;SDS_P2;PMS_P1;PMS_P2;Temp;Humidity;BMP_temperature;BMP_pressure;BME280_temperature;BME280_humidity;BME280_pressure;Samples;Min_cycle;Max_cycle;Signal;HPM_P1;HPM_P2
2022/12/06 00:02:00;;;;;;;5.63;3.47;;;4.10;99.90;;;;;;5150951;28;20211;-61
2022/12/06 00:04:31;;;;;;;5.00;3.50;;;4.20;99.90;;;;;;5102970;28;20118;-61
2022/12/06 00:07:06;;;;;;;7.32;4.43;;;4.40;99.90;;;;;;5143595;28;20053;-63
2022/12/06 00:09:40;;;;;;;6.28;3.67;;;4.40;99.90;;;;;;5124061;28;20045;-62
2022/12/06 00:12:16;;;;;;;6.22;3.63;;;4.50;99.90;;;;;;5140325;28;20052;-61
2022/12/06 00:14:48;;;;;;;2.30;1.98;;;4.30;99.90;;;;;;5156610;28;20053;-63
2022/12/06 00:17:19;;;;;;;1.13;1.00;;;3.90;99.90;;;;;;5172943;28;20219;-61
2022/12/06 00:19:56;;;;;;;1.00;0.98;;;3.60;99.90;;;;;;5154674;28;20038;-64
2022/12/06 00:22:36;;;;;;;2.28;1.42;;;3.60;99.90;;;;;;5170704;28;20061;-62
2022/12/06 00:25:11;;;;;;;1.40;1.10;;;3.50;99.90;;;;;;5172762;28;20034;-62
2022/12/06 00:27:46;;;;;;;2.33;1.73;;;3.50;99.90;;;;;;5136029;28;20061;-65
2022/12/06 00:30:17;;;;;;;1.02;0.82;;;3.50;99.90;;;;;;5165998;28;20057;-62
2022/12/06 00:32:52;;;;;;;1.40;0.90;;;3.60;99.90;;;;;;5171884;28;20042;-65
2022/12/06 00:35:26;;;;;;;0.90;0.90;;;3.60;99.90;;;;;;5188739;28;20353;-61
2022/12/06 00:38:00;;;;;;;0.93;0.85;;;3.60;99.90;;;;;;5192728;28;20046;-60
2022/12/06 00:40:36;;;;;;;;;;;3.60;99.90;;;;;;5155018;28;20048;-61
2022/12/06 00:43:13;;;;;;;0.63;0.63;;;3.60;99.90;;;;;;5155310;28;19916;-62
2022/12/06 00:45:49;;;;;;;0.80;0.80;;;3.60;99.90;;;;;;5172111;28;20038;-60
2022/12/06 00:48:27;;;;;;;0.70;0.70;;;3.60;99.90;;;;;;5155408;28;20030;-61
2022/12/06 00:51:09;;;;;;;0.93;0.90;;;3.60;99.90;;;;;;5186833;28;20050;-61
2022/12/06 00:53:46;;;;;;;0.70;0.70;;;3.60;99.90;;;;;;5155982;28;20331;-62
2022/12/06 00:56:29;;;;;;;0.68;0.68;;;3.70;99.90;;;;;;5155632;28;20042;-62
2022/12/06 00:59:08;;;;;;;0.88;0.88;;;3.70;99.90;;;;;;5138198;28;20235;-61
2022/12/06 01:01:46;;;;;;;0.70;0.70;;;3.70;99.90;;;;;;5161718;23;20057;-62
2022/12/06 01:04:28;;;;;;;0.60;0.60;;;3.70;99.90;;;;;;5149781;28;20241;-65
2022/12/06 01:07:02;;;;;;;0.63;0.63;;;3.80;99.90;;;;;;5180775;28;20032;-61
2022/12/06 01:09:35;;;;;;;0.85;0.85;;;3.80;99.90;;;;;;5196699;28;20030;-62
2022/12/06 01:12:10;;;;;;;0.70;0.70;;;3.80;99.90;;;;;;5157974;28;20056;-62
2022/12/06 01:14:48;;;;;;;0.80;0.80;;;3.80;99.90;;;;;;5159904;28;20378;-61
2022/12/06 01:17:28;;;;;;;0.80;0.80;;;3.80;99.90;;;;;;5124645;28;20045;-63
2022/12/06 01:20:07;;;;;;;0.80;0.80;;;3.90;99.90;;;;;;5127141;28;20046;-63
2022/12/06 01:22:43;;;;;;;0.75;0.75;;;3.90;99.90;;;;;;5153878;28;20245;-62
2022/12/06 01:25:20;;;;;;;;;;;3.90;99.90;;;;;;5175022;28;20049;-62
2022/12/06 01:27:53;;;;;;;0.70;0.70;;;4.00;99.90;;;;;;5179256;28;19915;-61
2022/12/06 01:30:24;;;;;;;0.70;0.70;;;4.00;99.90;;;;;;5146669;28;20049;-62
2022/12/06 01:32:59;;;;;;;0.75;0.75;;;4.00;99.90;;;;;;5143935;28;20326;-61
2022/12/06 01:35:35;;;;;;;0.90;0.90;;;4.00;99.90;;;;;;5173433;28;20057;-61
2022/12/06 01:38:11;;;;;;;0.60;0.60;;;4.00;99.90;;;;;;5176524;28;20038;-61
2022/12/06 01:40:48;;;;;;;0.63;0.63;;;4.00;99.90;;;;;;5160330;28;20050;-62
2022/12/06 01:43:44;;;;;;;0.65;0.65;;;4.10;99.90;;;;;;5161376;28;20042;-63
2022/12/06 01:46:48;;;;;;;0.80;0.80;;;4.00;99.90;;;;;;5196291;28;20033;-62
2022/12/06 01:49:31;;;;;;;0.80;0.80;;;4.00;99.90;;;;;;5184242;28;20040;-62
2022/12/06 01:52:14;;;;;;;0.80;0.80;;;4.00;99.90;;;;;;5207989;28;20249;-62
2022/12/06 01:54:47;;;;;;;0.70;0.70;;;4.00;99.90;;;;;;5169623;28;20056;-61
2022/12/06 01:57:35;;;;;;;0.60;0.60;;;4.00;99.90;;;;;;5181530;28;20319;-63
2022/12/06 02:00:10;;;;;;;0.82;0.82;;;4.00;99.90;;;;;;5186636;28;20032;-61
2022/12/06 02:02:52;;;;;;;0.70;0.70;;;4.00;99.90;;;;;;5163552;28;20093;-61
2022/12/06 02:05:31;;;;;;;0.43;0.43;;;4.00;99.90;;;;;;5150403;28;20056;-61
2022/12/06 02:08:09;;;;;;;0.60;0.60;;;4.00;99.90;;;;;;5183827;28;20046;-61
2022/12/06 02:10:48;;;;;;;0.70;0.70;;;4.00;99.90;;;;;;5184068;28;20044;-61
2022/12/06 02:13:26;;;;;;;0.80;0.80;;;4.00;99.90;;;;;;5165937;28;20049;-62
2022/12/06 02:16:23;;;;;;;0.70;0.70;;;4.00;99.90;;;;;;5149805;28;20059;-60
2022/12/06 02:19:34;;;;;;;0.60;0.60;;;4.10;99.90;;;;;;5166106;28;20048;-64
2022/12/06 02:22:44;;;;;;;0.65;0.65;;;4.10;99.90;;;;;;5141068;28;20053;-60
2022/12/06 02:26:05;;;;;;;0.65;0.65;;;4.20;99.90;;;;;;5170460;28;20041;-61
2022/12/06 02:29:03;;;;;;;0.50;0.50;;;4.20;99.90;;;;;;5200730;28;20040;-60
2022/12/06 02:31:59;;;;;;;0.50;0.50;;;4.30;99.90;;;;;;5195085;28;20226;-64
2022/12/06 02:35:23;;;;;;;0.68;0.68;;;4.30;99.90;;;;;;5170130;28;20033;-60
2022/12/06 02:38:14;;;;;;;0.50;0.50;;;4.30;99.90;;;;;;5180140;28;20048;-60
2022/12/06 02:41:20;;;;;;;0.50;0.50;;;4.40;99.90;;;;;;5164709;28;20048;-63
2022/12/06 02:44:03;;;;;;;0.70;0.70;;;4.40;99.90;;;;;;5161670;28;20056;-61
2022/12/06 02:46:42;;;;;;;0.60;0.60;;;4.40;99.90;;;;;;5165683;28;20045;-61
2022/12/06 02:49:27;;;;;;;0.68;0.68;;;4.40;99.90;;;;;;5165072;28;20060;-64
2022/12/06 02:52:08;;;;;;;0.77;0.70;;;4.40;99.90;;;;;;5156402;28;20051;-63
2022/12/06 02:54:43;;;;;;;0.60;0.60;;;4.40;99.90;;;;;;5179806;28;20237;-60
2022/12/06 02:57:33;;;;;;;0.68;0.68;;;4.40;99.90;;;;;;5166006;28;20221;-60
2022/12/06 03:00:45;;;;;;;0.77;0.77;;;4.40;99.90;;;;;;5176727;28;20274;-61
2022/12/06 03:03:27;;;;;;;0.60;0.60;;;4.40;99.90;;;;;;5161512;28;20045;-61
2022/12/06 03:06:05;;;;;;;0.50;0.50;;;4.40;99.90;;;;;;5166278;28;20046;-64
2022/12/06 03:08:37;;;;;;;0.57;0.57;;;4.40;99.90;;;;;;5145519;28;20350;-62
2022/12/06 03:11:12;;;;;;;0.63;0.63;;;4.40;99.90;;;;;;5197686;28;20061;-61
2022/12/06 03:14:13;;;;;;;0.50;0.50;;;4.40;99.90;;;;;;5146515;28;20132;-61
2022/12/06 03:17:21;;;;;;;0.50;0.50;;;4.40;99.90;;;;;;5163080;28;20463;-61
2022/12/06 03:20:06;;;;;;;0.60;0.60;;;4.40;99.90;;;;;;5158504;28;20339;-60
2022/12/06 03:22:52;;;;;;;0.70;0.70;;;4.50;99.90;;;;;;5179191;28;20060;-62
2022/12/06 03:25:27;;;;;;;0.70;0.70;;;4.40;99.90;;;;;;5162102;28;20037;-62
2022/12/06 03:28:02;;;;;;;0.60;0.60;;;4.40;99.90;;;;;;5177570;28;20042;-61
2022/12/06 03:30:40;;;;;;;0.60;0.60;;;4.50;99.90;;;;;;5176298;28;20038;-63
2022/12/06 03:33:14;;;;;;;0.70;0.70;;;4.50;99.90;;;;;;5155937;28;20360;-61
2022/12/06 03:35:53;;;;;;;0.88;0.88;;;4.50;99.90;;;;;;5176838;28;20037;-63
2022/12/06 03:38:49;;;;;;;0.68;0.68;;;4.60;99.90;;;;;;5159454;28;20056;-61
2022/12/06 03:41:29;;;;;;;0.90;0.90;;;4.60;99.90;;;;;;5140144;28;20046;-62
2022/12/06 03:44:06;;;;;;;0.90;0.90;;;4.70;99.90;;;;;;5180134;28;20050;-63
2022/12/06 03:46:49;;;;;;;0.60;0.60;;;4.70;99.90;;;;;;5142068;28;20045;-63
2022/12/06 03:49:53;;;;;;;0.95;0.95;;;4.70;99.90;;;;;;5150997;28;20049;-62
2022/12/06 03:52:28;;;;;;;0.70;0.70;;;4.70;99.90;;;;;;5154523;28;20037;-62
2022/12/06 03:55:02;;;;;;;0.60;0.60;;;4.70;99.90;;;;;;5168013;28;20046;-61
2022/12/06 03:57:39;;;;;;;0.95;0.95;;;4.80;99.90;;;;;;5156987;28;20040;-62
2022/12/06 04:00:15;;;;;;;0.60;0.60;;;4.80;99.90;;;;;;5141124;28;20046;-61
2022/12/06 04:02:47;;;;;;;0.90;0.90;;;4.80;99.90;;;;;;5171962;28;20038;-63
2022/12/06 04:05:19;;;;;;;0.90;0.90;;;4.80;99.90;;;;;;5166779;28;20338;-62
2022/12/06 04:07:51;;;;;;;1.08;1.00;;;4.80;99.90;;;;;;5161014;28;20030;-63
2022/12/06 04:10:28;;;;;;;0.70;0.70;;;4.80;99.90;;;;;;5176620;28;20056;-64
2022/12/06 04:13:04;;;;;;;0.80;0.80;;;4.80;99.90;;;;;;5159002;28;20053;-61
2022/12/06 04:15:38;;;;;;;0.80;0.80;;;4.90;99.90;;;;;;5176959;28;20042;-61
2022/12/06 04:18:15;;;;;;;0.88;0.88;;;5.00;99.90;;;;;;5160382;28;20450;-62
2022/12/06 04:23:58;;;;;;;0.95;0.93;;;4.90;99.90;;;;;;5174491;28;20037;-61
2022/12/06 04:26:30;;;;;;;1.20;1.10;;;5.00;99.90;;;;;;5146150;28;20048;-61
2022/12/06 04:40:30;;;;;;;1.02;1.00;;;5.00;99.90;;;;;;5159064;28;20223;-61
2022/12/06 04:46:06;;;;;;;0.85;0.85;;;5.10;99.90;;;;;;5179693;28;20336;-61
2022/12/06 04:48:49;;;;;;;0.80;0.80;;;5.10;99.90;;;;;;5177281;28;20033;-61
2022/12/06 04:51:32;;;;;;;0.95;0.95;;;5.10;99.90;;;;;;5144395;28;20041;-62
2022/12/06 04:54:11;;;;;;;1.05;0.95;;;5.10;99.90;;;;;;5170893;28;20225;-62
2022/12/06 04:56:50;;;;;;;3.03;1.40;;;5.10;99.90;;;;;;5167798;28;20345;-62
2022/12/06 04:59:22;;;;;;;1.63;1.00;;;5.10;99.90;;;;;;5143067;28;20048;-62
2022/12/06 05:02:05;;;;;;;0.80;0.80;;;5.10;99.90;;;;;;5164348;28;20061;-60
2022/12/06 05:04:42;;;;;;;1.30;1.20;;;5.10;99.90;;;;;;5173267;28;20050;-61
2022/12/06 05:07:19;;;;;;;1.02;0.95;;;5.10;99.90;;;;;;5182395;28;20333;-59
2022/12/06 05:09:56;;;;;;;1.10;1.00;;;5.10;99.90;;;;;;5157411;28;20050;-63
2022/12/06 05:12:36;;;;;;;1.00;0.90;;;5.10;99.90;;;;;;5184380;28;20227;-62
2022/12/06 05:15:08;;;;;;;1.13;1.02;;;5.10;99.90;;;;;;5115796;28;20054;-61
2022/12/06 05:17:42;;;;;;;0.80;0.80;;;5.10;99.90;;;;;;5170816;28;20037;-61
2022/12/06 05:20:17;;;;;;;0.90;0.90;;;5.10;99.90;;;;;;5128353;28;20238;-61
2022/12/06 05:22:50;;;;;;;1.27;1.10;;;5.10;99.90;;;;;;5142328;28;20407;-62
2022/12/06 05:25:24;;;;;;;1.20;1.10;;;5.10;99.90;;;;;;5180659;28;20105;-61
2022/12/06 05:27:56;;;;;;;1.13;1.00;;;5.00;99.90;;;;;;5172872;28;20048;-61
2022/12/06 05:30:30;;;;;;;1.15;1.08;;;5.00;99.90;;;;;;5138765;28;20056;-61
2022/12/06 05:33:07;;;;;;;1.00;1.00;;;5.00;99.90;;;;;;5151492;28;20038;-61
2022/12/06 05:35:46;;;;;;;0.93;0.93;;;4.90;99.90;;;;;;5176260;28;20041;-63
2022/12/06 05:38:29;;;;;;;0.82;0.82;;;4.90;99.90;;;;;;5141393;28;20050;-62
2022/12/06 05:41:01;;;;;;;0.98;0.90;;;4.80;99.90;;;;;;5175999;28;20060;-61
2022/12/06 05:43:33;;;;;;;0.70;0.70;;;4.80;99.90;;;;;;5195959;28;20080;-64
2022/12/06 05:46:07;;;;;;;1.05;0.95;;;4.80;99.90;;;;;;5159600;28;20161;-61
2022/12/06 05:48:41;;;;;;;0.73;0.73;;;4.80;99.90;;;;;;5160882;28;20246;-61
2022/12/06 05:51:16;;;;;;;0.90;0.90;;;4.80;99.90;;;;;;5170930;28;20040;-63
2022/12/06 05:53:51;;;;;;;2.58;0.90;;;4.80;99.90;;;;;;5194706;28;20048;-62
2022/12/06 05:56:22;;;;;;;1.02;1.00;;;4.80;99.90;;;;;;5199746;28;20037;-61
2022/12/06 05:59:02;;;;;;;2.67;1.02;;;4.80;99.90;;;;;;5195762;28;20042;-62
2022/12/06 06:01:39;;;;;;;1.50;1.30;;;4.80;99.90;;;;;;5177428;28;20046;-63
2022/12/06 06:04:14;;;;;;;1.10;1.00;;;4.80;99.90;;;;;;5179856;28;20045;-62
2022/12/06 06:06:48;;;;;;;1.50;1.13;;;4.80;99.90;;;;;;5178622;28;20038;-62
2022/12/06 06:09:26;;;;;;;1.40;1.30;;;4.90;99.90;;;;;;5159773;28;20048;-62
2022/12/06 06:12:02;;;;;;;0.90;0.90;;;4.90;99.90;;;;;;5166889;28;20309;-62
2022/12/06 06:14:36;;;;;;;1.27;1.17;;;4.90;99.90;;;;;;5168590;28;20057;-63
2022/12/06 06:17:12;;;;;;;1.10;1.05;;;5.00;99.90;;;;;;5170880;28;20226;-61
2022/12/06 06:19:49;;;;;;;1.13;1.10;;;5.00;99.90;;;;;;5193630;28;20093;-63
2022/12/06 06:22:23;;;;;;;1.00;1.00;;;5.00;99.90;;;;;;5169719;28;20036;-62
2022/12/06 06:25:01;;;;;;;1.95;1.17;;;5.00;99.90;;;;;;5177576;28;20314;-62
2022/12/06 06:27:39;;;;;;;1.25;1.15;;;5.00;99.90;;;;;;5152016;28;20055;-66
2022/12/06 06:30:18;;;;;;;1.10;1.00;;;4.90;99.90;;;;;;5192032;28;20054;-62
2022/12/06 06:32:49;;;;;;;1.20;1.10;;;4.90;99.90;;;;;;5177728;28;20042;-62
2022/12/06 06:35:26;;;;;;;2.53;1.42;;;4.90;99.90;;;;;;5177183;28;20046;-62
2022/12/06 06:38:03;;;;;;;1.10;1.00;;;4.90;99.90;;;;;;5178946;28;20048;-62
2022/12/06 06:40:38;;;;;;;1.42;1.33;;;4.90;99.90;;;;;;5160112;28;20046;-63
2022/12/06 06:43:17;;;;;;;1.40;1.30;;;4.90;99.90;;;;;;5166374;28;20045;-63
2022/12/06 06:46:01;;;;;;;1.35;1.25;;;4.90;99.90;;;;;;5181008;28;20045;-62
2022/12/06 06:48:38;;;;;;;1.55;1.40;;;4.90;99.90;;;;;;5176546;28;20065;-63
2022/12/06 06:51:25;;;;;;;1.60;1.50;;;4.80;99.90;;;;;;5177026;28;20071;-60
2022/12/06 06:54:00;;;;;;;1.42;1.30;;;4.80;99.90;;;;;;5175544;28;20225;-61
2022/12/06 06:56:31;;;;;;;;;;;4.80;99.90;;;;;;5157282;28;20049;-62
2022/12/06 06:59:07;;;;;;;1.27;1.17;;;4.80;99.90;;;;;;5188751;28;19918;-63
2022/12/06 07:01:45;;;;;;;1.35;1.20;;;4.80;99.90;;;;;;5185334;28;20047;-62
2022/12/06 07:04:22;;;;;;;1.42;1.30;;;4.80;99.90;;;;;;5162561;28;20052;-61
2022/12/06 07:06:59;;;;;;;1.88;1.70;;;4.80;99.90;;;;;;5195453;28;20304;-61
2022/12/06 07:09:30;;;;;;;1.75;1.50;;;4.80;99.90;;;;;;5177917;28;20038;-62
2022/12/06 07:12:03;;;;;;;2.17;1.75;;;4.70;99.90;;;;;;5144723;28;20072;-63
2022/12/06 07:14:34;;;;;;;3.20;2.08;;;4.60;99.90;;;;;;5159438;28;20033;-62
2022/12/06 07:17:11;;;;;;;2.03;1.70;;;4.60;99.90;;;;;;5174097;28;20484;-62
2022/12/06 07:19:42;;;;;;;2.60;2.22;;;4.60;99.90;;;;;;5168111;28;20061;-61
2022/12/06 07:22:21;;;;;;;2.65;2.17;;;4.60;99.90;;;;;;5153743;28;20071;-62
2022/12/06 07:24:53;;;;;;;1.20;1.10;;;4.60;99.90;;;;;;5195162;28;20042;-61
2022/12/06 07:27:27;;;;;;;1.92;1.40;;;4.50;99.90;;;;;;5160830;28;20055;-62
2022/12/06 07:29:58;;;;;;;1.67;1.58;;;4.50;99.90;;;;;;5142706;28;20056;-61
2022/12/06 07:32:36;;;;;;;1.95;1.45;;;4.50;99.90;;;;;;5140426;28;20052;-62
2022/12/06 07:35:11;;;;;;;812.95;399.35;;;4.50;99.90;;;;;;5161208;28;20337;-63
2022/12/06 07:37:47;;;;;;;1190.65;349.60;;;4.50;99.90;;;;;;5175915;28;20045;-62
2022/12/06 07:40:19;;;;;;;271.10;113.90;;;4.60;99.90;;;;;;5169597;28;20056;-62
2022/12/06 07:45:59;;;;;;;149.95;68.72;;;4.70;99.90;;;;;;5187852;28;20046;-63
2022/12/06 07:48:34;;;;;;;29.25;16.60;;;4.70;99.90;;;;;;5170492;28;20030;-63
2022/12/06 07:51:10;;;;;;;123.30;62.25;;;4.80;99.90;;;;;;5175155;28;20056;-62
2022/12/06 07:53:46;;;;;;;16.00;13.02;;;4.90;99.90;;;;;;5171033;28;20466;-62
2022/12/06 07:56:18;;;;;;;4.35;3.72;;;4.90;99.90;;;;;;5152657;28;20249;-64
2022/12/06 07:58:55;;;;;;;8.48;6.30;;;4.90;99.90;;;;;;5181275;28;20228;-63
2022/12/06 08:01:32;;;;;;;5.78;4.22;;;4.90;99.90;;;;;;5142414;28;20049;-66
2022/12/06 08:04:05;;;;;;;3.08;2.70;;;4.80;99.90;;;;;;5197289;28;20060;-62
2022/12/06 08:06:39;;;;;;;41.13;30.17;;;4.80;99.90;;;;;;5182386;28;20071;-62
2022/12/06 08:09:16;;;;;;;2.90;2.60;;;4.80;99.90;;;;;;5184746;28;20041;-62
2022/12/06 08:11:48;;;;;;;5.72;4.20;;;4.70;99.90;;;;;;5187046;28;20346;-62
2022/12/06 08:14:22;;;;;;;9.38;8.35;;;4.80;99.90;;;;;;5207787;28;20049;-62
2022/12/06 08:16:53;;;;;;;23.52;19.08;;;4.80;99.90;;;;;;5176555;28;20051;-63
2022/12/06 08:19:27;;;;;;;9.60;8.45;;;4.80;99.90;;;;;;5171637;28;20246;-62
2022/12/06 08:21:59;;;;;;;9.75;7.07;;;4.80;99.90;;;;;;5172425;28;20188;-63
2022/12/06 08:24:32;;;;;;;4.03;3.65;;;4.80;99.90;;;;;;5171615;28;20042;-62
2022/12/06 08:27:05;;;;;;;2.42;2.22;;;4.70;99.90;;;;;;5170290;28;20046;-63
2022/12/06 08:29:39;;;;;;;2.22;2.03;;;4.60;99.90;;;;;;5156051;28;20226;-63
2022/12/06 08:32:10;;;;;;;11.88;8.40;;;4.60;99.90;;;;;;5165320;28;20049;-63
2022/12/06 08:34:43;;;;;;;2.90;2.60;;;4.70;99.90;;;;;;5159247;28;20038;-64
2022/12/06 08:37:15;;;;;;;2.20;1.98;;;4.70;99.90;;;;;;5167621;28;20322;-62
2022/12/06 08:39:50;;;;;;;2.40;1.40;;;4.70;99.90;;;;;;5168723;28;20043;-62
2022/12/06 08:42:27;;;;;;;2.47;1.90;;;4.60;99.90;;;;;;5169120;28;20033;-62
2022/12/06 08:45:28;;;;;;;2.13;1.92;;;4.50;99.90;;;;;;5173155;28;20041;-62
2022/12/06 08:48:00;;;;;;;1.73;1.50;;;4.50;99.90;;;;;;5183399;28;20207;-61
2022/12/06 08:50:40;;;;;;;1.65;1.48;;;4.50;99.90;;;;;;5181750;28;20026;-61
2022/12/06 08:53:12;;;;;;;2.90;2.58;;;4.50;99.90;;;;;;5153094;28;20048;-62
2022/12/06 08:55:54;;;;;;;2.58;2.15;;;4.40;99.90;;;;;;5170708;28;20041;-63
2022/12/06 08:58:27;;;;;;;2.05;1.85;;;4.50;99.90;;;;;;5182819;28;20032;-62
2022/12/06 09:00:59;;;;;;;2.58;1.90;;;4.50;99.90;;;;;;5160270;28;20049;-61
2022/12/06 09:03:35;;;;;;;2.72;1.75;;;4.50;99.90;;;;;;5184934;28;20030;-62
2022/12/06 09:06:08;;;;;;;3.85;2.10;;;4.40;99.90;;;;;;5164759;28;20062;-62
2022/12/06 09:08:40;;;;;;;1.65;1.55;;;4.50;99.90;;;;;;5185538;28;20105;-60
2022/12/06 09:11:24;;;;;;;2.92;2.00;;;4.60;99.90;;;;;;5190376;28;20050;-63
2022/12/06 09:14:00;;;;;;;4.03;2.55;;;4.60;99.90;;;;;;5166087;28;20048;-60
2022/12/06 09:16:35;;;;;;;2.53;1.92;;;4.70;99.90;;;;;;5150933;28;20056;-64
2022/12/06 09:19:16;;;;;;;2.50;2.10;;;4.70;99.90;;;;;;5173825;28;20234;-62
2022/12/06 09:21:48;;;;;;;8.82;4.28;;;4.70;99.90;;;;;;5160134;28;20072;-62
2022/12/06 09:24:22;;;;;;;13.80;9.82;;;4.70;99.90;;;;;;5185651;28;20034;-61
2022/12/06 09:26:54;;;;;;;19.35;17.40;;;4.70;99.90;;;;;;5130543;28;20049;-61
2022/12/06 09:29:25;;;;;;;19.25;16.55;;;4.70;99.90;;;;;;5170102;28;20038;-61
2022/12/06 09:31:57;;;;;;;19.05;16.75;;;4.70;99.90;;;;;;5174847;28;20039;-61
2022/12/06 09:34:29;;;;;;;2.63;2.42;;;4.70;99.90;;;;;;5157287;28;20222;-61
2022/12/06 09:37:11;;;;;;;8.73;4.15;;;4.70;99.90;;;;;;5139375;28;20808;-64
2022/12/06 09:39:51;;;;;;;5.40;4.22;;;4.70;99.90;;;;;;5157949;28;20050;-63
2022/12/06 09:42:51;;;;;;;6.18;5.53;;;4.70;99.90;;;;;;5164386;28;20041;-61
2022/12/06 09:46:23;;;;;;;4.10;2.92;;;4.70;99.90;;;;;;5136231;28;20038;-60
2022/12/06 09:49:32;;;;;;;3.85;3.20;;;4.70;99.90;;;;;;5174518;28;20041;-62
2022/12/06 09:52:24;;;;;;;5.13;3.80;;;4.80;99.90;;;;;;5128594;29;20040;-61
2022/12/06 09:55:16;;;;;;;6.75;2.42;;;4.80;99.90;;;;;;5153106;28;20053;-60
2022/12/06 09:58:01;;;;;;;5.43;4.35;;;4.90;99.90;;;;;;5166709;28;20050;-60
2022/12/06 10:00:47;;;;;;;3.03;2.55;;;5.00;99.90;;;;;;5162079;28;20342;-63
2022/12/06 10:03:41;;;;;;;3.45;2.70;;;5.10;99.90;;;;;;5172887;28;20234;-60
2022/12/06 10:06:17;;;;;;;2.15;1.95;;;5.10;99.90;;;;;;5179358;28;20061;-60
2022/12/06 10:09:02;;;;;;;2.70;2.20;;;5.20;99.90;;;;;;5166512;28;20034;-60
2022/12/06 10:12:10;;;;;;;3.80;2.60;;;5.10;99.90;;;;;;5176599;28;20045;-63
2022/12/06 10:15:09;;;;;;;6.80;5.05;;;5.20;99.90;;;;;;5144104;28;20053;-61
2022/12/06 10:17:46;;;;;;;4.57;3.20;;;5.20;99.90;;;;;;5194069;28;20041;-60
2022/12/06 10:20:36;;;;;;;4.07;3.22;;;5.30;99.90;;;;;;5162606;28;20053;-60
2022/12/06 10:23:42;;;;;;;4.10;2.85;;;5.20;99.90;;;;;;5161438;28;20041;-61
2022/12/06 10:26:27;;;;;;;5.20;3.33;;;5.30;99.90;;;;;;5142945;28;20168;-62
2022/12/06 10:29:24;;;;;;;5.78;3.63;;;5.30;99.90;;;;;;5161745;28;20250;-59
2022/12/06 10:32:37;;;;;;;6.70;4.20;;;5.40;99.90;;;;;;5171211;28;20038;-60
2022/12/06 10:35:48;;;;;;;4.97;3.88;;;5.80;99.90;;;;;;5164894;28;20348;-60
2022/12/06 10:38:44;;;;;;;7.05;5.03;;;6.20;99.90;;;;;;5179669;28;20045;-61
2022/12/06 10:41:38;;;;;;;10.90;7.45;;;6.20;99.90;;;;;;5162118;28;20046;-60
2022/12/06 10:44:55;;;;;;;8.52;5.75;;;6.30;99.90;;;;;;5162176;28;20042;-61
2022/12/06 10:47:40;;;;;;;8.75;5.30;;;6.40;99.90;;;;;;5161369;28;20042;-61
2022/12/06 10:50:29;;;;;;;6.18;4.15;;;6.30;99.90;;;;;;5157339;28;20054;-60
2022/12/06 10:53:17;;;;;;;5.45;3.88;;;6.60;99.90;;;;;;5162288;28;20064;-60
2022/12/06 10:56:00;;;;;;;6.22;4.53;;;6.80;99.90;;;;;;5177858;28;20040;-61
2022/12/06 10:58:42;;;;;;;6.95;4.60;;;7.10;99.90;;;;;;5160408;28;20229;-60
2022/12/06 11:01:31;;;;;;;5.60;3.40;;;7.30;99.90;;;;;;5150793;28;20055;-60
2022/12/06 11:04:18;;;;;;;4.35;3.25;;;7.30;99.90;;;;;;5183609;28;20346;-61
2022/12/06 11:06:55;;;;;;;4.30;3.45;;;7.30;99.90;;;;;;5169109;28;20056;-64
2022/12/06 11:09:35;;;;;;;13.52;8.50;;;7.20;99.90;;;;;;5168915;28;20056;-62
2022/12/06 11:12:39;;;;;;;79.03;45.90;;;7.10;99.90;;;;;;5170548;28;20049;-61
2022/12/06 11:15:17;;;;;;;4.78;3.67;;;6.80;99.90;;;;;;5105881;29;20047;-61
2022/12/06 11:18:03;;;;;;;6.32;3.72;;;6.40;99.90;;;;;;5084017;29;20056;-64
2022/12/06 11:21:02;;;;;;;5.57;3.25;;;6.30;99.90;;;;;;5091819;28;20049;-60
2022/12/06 11:24:10;;;;;;;4.88;3.25;;;6.80;99.90;;;;;;5112618;29;20032;-60
2022/12/06 11:26:48;;;;;;;3.33;2.63;;;6.80;99.90;;;;;;5126456;28;20170;-61
2022/12/06 11:29:24;;;;;;;4.20;3.40;;;7.10;99.90;;;;;;5120422;29;20031;-62
2022/12/06 11:32:02;;;;;;;3.97;3.03;;;8.00;99.90;;;;;;5113092;29;20120;-61
2022/12/06 11:35:01;;;;;;;5.03;3.63;;;7.80;99.90;;;;;;5113277;29;20043;-61
2022/12/06 11:37:39;;;;;;;5.13;3.63;;;8.40;99.90;;;;;;5124132;28;20041;-65
2022/12/06 11:40:27;;;;;;;8.15;6.50;;;9.30;99.90;;;;;;5111369;29;20138;-61
2022/12/06 11:43:08;;;;;;;4.40;3.60;;;8.50;99.90;;;;;;5130665;29;20214;-61
2022/12/06 11:45:44;;;;;;;4.30;3.20;;;7.30;99.90;;;;;;5103520;28;20048;-63
2022/12/06 11:48:24;;;;;;;5.82;3.97;;;7.30;99.90;;;;;;5103809;28;20081;-61
2022/12/06 11:51:08;;;;;;;4.95;3.55;;;7.20;99.90;;;;;;5113773;28;20042;-60
2022/12/06 11:54:15;;;;;;;5.28;3.60;;;7.30;99.90;;;;;;5141651;28;20050;-64
2022/12/06 11:56:49;;;;;;;5.53;3.92;;;6.90;99.90;;;;;;5155736;28;20048;-63
2022/12/06 11:59:28;;;;;;;4.63;3.58;;;6.60;99.90;;;;;;5159791;28;20060;-63
2022/12/06 12:02:20;;;;;;;6.40;3.85;;;6.50;99.90;;;;;;5184242;28;20314;-65
2022/12/06 12:04:54;;;;;;;19.90;14.32;;;6.40;99.90;;;;;;5151141;28;20052;-61
2022/12/06 12:07:25;;;;;;;5.00;4.28;;;6.30;99.90;;;;;;5145500;28;20159;-62
2022/12/06 12:10:24;;;;;;;6.43;4.25;;;6.40;99.90;;;;;;5150471;28;20046;-61
2022/12/06 12:13:51;;;;;;;5.93;3.67;;;7.10;99.90;;;;;;5186962;28;20072;-63
2022/12/06 12:16:33;;;;;;;12.65;8.43;;;8.40;99.90;;;;;;5165589;28;20045;-61
2022/12/06 12:19:32;;;;;;;5.50;4.55;;;8.60;99.90;;;;;;5169076;28;20056;-60
2022/12/06 12:22:41;;;;;;;4.40;2.90;;;8.70;99.90;;;;;;5167808;28;20056;-63
2022/12/06 12:25:18;;;;;;;4.22;3.00;;;8.40;99.90;;;;;;5110925;29;20247;-61
2022/12/06 12:27:58;;;;;;;4.20;3.33;;;7.80;99.90;;;;;;5121034;29;20304;-64
2022/12/06 12:30:41;;;;;;;6.25;4.28;;;7.10;99.90;;;;;;5111776;29;20047;-61
2022/12/06 12:33:24;;;;;;;6.07;4.53;;;6.80;99.90;;;;;;5099031;29;20118;-61
2022/12/06 12:36:08;;;;;;;6.07;3.78;;;7.00;99.90;;;;;;5084003;29;20043;-60
2022/12/06 12:38:51;;;;;;;5.72;3.83;;;6.90;99.90;;;;;;5114391;29;20047;-60
2022/12/06 12:41:47;;;;;;;7.20;3.67;;;6.90;99.90;;;;;;5096861;28;20047;-61
2022/12/06 12:44:30;;;;;;;5.57;4.00;;;6.80;99.90;;;;;;5096350;29;20039;-62
2022/12/06 12:47:21;;;;;;;5.88;4.38;;;6.80;99.90;;;;;;5112813;29;20053;-60
2022/12/06 12:50:17;;;;;;;4.70;3.30;;;6.70;99.90;;;;;;5125719;28;20051;-60
2022/12/06 12:52:59;;;;;;;5.97;3.67;;;6.50;99.90;;;;;;5096449;29;20121;-63
2022/12/06 12:55:38;;;;;;;9.15;8.18;;;6.50;99.90;;;;;;5114327;29;20252;-61
2022/12/06 12:58:17;;;;;;;4.22;3.13;;;6.60;99.90;;;;;;5098399;29;20039;-59
2022/12/06 13:00:57;;;;;;;7.57;5.20;;;6.40;99.90;;;;;;5127908;28;20242;-61
2022/12/06 13:03:35;;;;;;;6.68;3.70;;;6.40;99.90;;;;;;5159859;28;20274;-60
2022/12/06 13:06:36;;;;;;;7.15;4.55;;;6.50;99.90;;;;;;5154652;28;20270;-60
2022/12/06 13:09:38;;;;;;;5.80;4.35;;;6.60;99.90;;;;;;5163177;28;20042;-61
2022/12/06 13:12:28;;;;;;;4.53;3.42;;;7.20;99.90;;;;;;5174084;28;20041;-60
2022/12/06 13:15:22;;;;;;;4.72;3.08;;;7.60;99.90;;;;;;5175389;28;20046;-60
2022/12/06 13:18:08;;;;;;;4.70;3.42;;;8.20;99.90;;;;;;5151089;28;20212;-61
2022/12/06 13:20:46;;;;;;;4.53;3.40;;;8.30;99.90;;;;;;5191189;28;20041;-59
2022/12/06 13:23:30;;;;;;;3.22;2.83;;;7.90;99.90;;;;;;5165015;28;20046;-60
2022/12/06 13:26:17;;;;;;;5.13;3.28;;;7.60;99.90;;;;;;5172039;28;20029;-61
2022/12/06 13:28:57;;;;;;;4.38;3.13;;;7.40;99.90;;;;;;5173343;28;20053;-63
2022/12/06 13:31:38;;;;;;;5.25;3.08;;;7.70;99.90;;;;;;5175458;28;20045;-62
2022/12/06 13:34:28;;;;;;;4.47;2.88;;;7.60;99.90;;;;;;5156223;28;20046;-59
2022/12/06 13:37:02;;;;;;;5.10;3.22;;;7.20;99.90;;;;;;5174186;28;20219;-60
2022/12/06 13:39:39;;;;;;;5.25;3.85;;;6.90;99.90;;;;;;5140466;28;20177;-61
2022/12/06 13:42:46;;;;;;;5.15;3.38;;;6.60;99.90;;;;;;5158829;28;20042;-60
2022/12/06 13:45:49;;;;;;;4.35;2.95;;;6.20;99.90;;;;;;5115747;28;20058;-63
2022/12/06 13:48:24;;;;;;;7.95;4.25;;;6.00;99.90;;;;;;5111505;28;20242;-62
2022/12/06 13:51:05;;;;;;;5.05;4.15;;;5.90;99.90;;;;;;5117623;28;20058;-62
2022/12/06 13:54:05;;;;;;;3.33;2.70;;;5.90;99.90;;;;;;5099066;29;20039;-62
2022/12/06 13:56:44;;;;;;;5.55;3.78;;;5.80;99.90;;;;;;5114089;29;20039;-61
2022/12/06 13:59:16;;;;;;;4.22;3.67;;;5.70;99.90;;;;;;5102738;29;20271;-61
2022/12/06 14:01:59;;;;;;;5.72;3.97;;;5.70;99.90;;;;;;5131059;28;20467;-61
2022/12/06 14:04:37;;;;;;;5.60;3.60;;;5.60;99.90;;;;;;5104855;28;21742;-60
2022/12/06 14:07:11;;;;;;;6.40;4.45;;;5.50;99.90;;;;;;5128967;28;20042;-60
2022/12/06 14:09:48;;;;;;;4.73;3.93;;;5.50;99.90;;;;;;5117566;29;20047;-61
2022/12/06 14:12:26;;;;;;;6.88;3.72;;;5.40;99.90;;;;;;5116466;29;20277;-61
2022/12/06 14:15:06;;;;;;;6.20;3.88;;;5.30;99.90;;;;;;5101746;29;20047;-61
2022/12/06 14:17:45;;;;;;;5.10;3.55;;;5.30;99.90;;;;;;5122123;28;20349;-61
2022/12/06 14:20:28;;;;;;;4.30;3.08;;;5.20;99.90;;;;;;5125411;28;20057;-59
2022/12/06 14:23:06;;;;;;;6.35;3.90;;;5.20;99.90;;;;;;5171918;28;20053;-60
2022/12/06 14:25:45;;;;;;;4.65;3.60;;;5.10;99.90;;;;;;5192222;28;20036;-61
2022/12/06 14:28:19;;;;;;;4.30;3.47;;;5.10;99.90;;;;;;5155464;28;20044;-62
2022/12/06 14:31:06;;;;;;;5.68;4.45;;;5.10;99.90;;;;;;5175419;28;20044;-61